sensor_id;sensor_type;location;lat;lon;timestamp;P1;durP1;ratioP1;P2;durP2;ratioP2
47259;SDS011;32999;52.412;4.890;2022-11-20T00:04:57;12.75;;;7.25;;
47259;SDS011;32999;52.412;4.890;2022-11-20T00:09:59;13.80;;;7.07;;
47259;SDS011;32999;52.412;4.890;2022-11-20T00:15:01;15.57;;;8.35;;
47259;SDS011;32999;52.412;4.890;2022-11-20T00:20:04;14.75;;;7.78;;
47259;SDS011;32999;52.412;4.890;2022-11-20T00:25:07;11.93;;;6.87;;
47259;SDS011;32999;52.412;4.890;2022-11-20T00:30:09;13.77;;;7.32;;
47259;SDS011;32999;52.412;4.890;2022-11-20T00:35:13;13.95;;;7.32;;
47259;SDS011;32999;52.412;4.890;2022-11-20T00:40:15;14.48;;;7.78;;
47259;SDS011;32999;52.412;4.890;2022-11-20T00:45:16;12.27;;;6.88;;
47259;SDS011;32999;52.412;4.890;2022-11-20T00:50:19;14.27;;;7.68;;
47259;SDS011;32999;52.412;4.890;2022-11-20T00:55:21;12.98;;;7.28;;
47259;SDS011;32999;52.412;4.890;2022-11-20T01:00:23;13.48;;;7.95;;
47259;SDS011;32999;52.412;4.890;2022-11-20T01:05:26;12.70;;;6.43;;
47259;SDS011;32999;52.412;4.890;2022-11-20T01:10:28;11.70;;;6.70;;
47259;SDS011;32999;52.412;4.890;2022-11-20T01:15:30;12.55;;;7.00;;
47259;SDS011;32999;52.412;4.890;2022-11-20T01:20:37;12.48;;;6.75;;
47259;SDS011;32999;52.412;4.890;2022-11-20T01:25:39;14.48;;;7.68;;
47259;SDS011;32999;52.412;4.890;2022-11-20T01:30:41;11.70;;;6.65;;
47259;SDS011;32999;52.412;4.890;2022-11-20T01:35:44;13.73;;;7.88;;
47259;SDS011;32999;52.412;4.890;2022-11-20T01:40:53;11.20;;;7.20;;
47259;SDS011;32999;52.412;4.890;2022-11-20T01:45:58;14.50;;;7.45;;
47259;SDS011;32999;52.412;4.890;2022-11-20T01:51:03;13.75;;;6.47;;
47259;SDS011;32999;52.412;4.890;2022-11-20T01:56:08;16.58;;;8.05;;
47259;SDS011;32999;52.412;4.890;2022-11-20T02:01:13;15.60;;;7.88;;
47259;SDS011;32999;52.412;4.890;2022-11-20T02:06:19;19.65;;;8.38;;
47259;SDS011;32999;52.412;4.890;2022-11-20T02:11:25;13.10;;;6.78;;
47259;SDS011;32999;52.412;4.890;2022-11-20T02:16:28;16.05;;;8.23;;
47259;SDS011;32999;52.412;4.890;2022-11-20T02:21:39;13.40;;;6.72;;
47259;SDS011;32999;52.412;4.890;2022-11-20T02:26:52;13.25;;;7.70;;
47259;SDS011;32999;52.412;4.890;2022-11-20T02:31:55;12.23;;;6.90;;
47259;SDS011;32999;52.412;4.890;2022-11-20T02:36:59;12.82;;;7.53;;
47259;SDS011;32999;52.412;4.890;2022-11-20T02:42:02;12.73;;;6.97;;
47259;SDS011;32999;52.412;4.890;2022-11-20T02:47:04;13.02;;;7.13;;
47259;SDS011;32999;52.412;4.890;2022-11-20T02:52:06;14.20;;;7.20;;
47259;SDS011;32999;52.412;4.890;2022-11-20T02:57:09;12.18;;;6.50;;
47259;SDS011;32999;52.412;4.890;2022-11-20T03:02:11;15.15;;;7.07;;
47259;SDS011;32999;52.412;4.890;2022-11-20T03:07:13;15.35;;;7.50;;
47259;SDS011;32999;52.412;4.890;2022-11-20T03:12:16;13.77;;;7.22;;
47259;SDS011;32999;52.412;4.890;2022-11-20T03:17:19;12.85;;;6.63;;
47259;SDS011;32999;52.412;4.890;2022-11-20T03:22:21;10.73;;;6.32;;
47259;SDS011;32999;52.412;4.890;2022-11-20T03:27:24;13.00;;;6.88;;
47259;SDS011;32999;52.412;4.890;2022-11-20T03:32:25;13.20;;;7.47;;
47259;SDS011;32999;52.412;4.890;2022-11-20T03:37:27;11.88;;;6.40;;
47259;SDS011;32999;52.412;4.890;2022-11-20T03:42:30;14.73;;;7.18;;
47259;SDS011;32999;52.412;4.890;2022-11-20T03:47:47;14.52;;;6.65;;
47259;SDS011;32999;52.412;4.890;2022-11-20T03:52:49;11.77;;;7.00;;
47259;SDS011;32999;52.412;4.890;2022-11-20T03:57:52;11.90;;;6.80;;
47259;SDS011;32999;52.412;4.890;2022-11-20T04:02:57;11.70;;;6.97;;
47259;SDS011;32999;52.412;4.890;2022-11-20T04:07:59;14.90;;;6.28;;
47259;SDS011;32999;52.412;4.890;2022-11-20T04:13:02;11.05;;;6.00;;
47259;SDS011;32999;52.412;4.890;2022-11-20T04:18:04;11.73;;;7.03;;
47259;SDS011;32999;52.412;4.890;2022-11-20T04:23:06;14.90;;;6.90;;
47259;SDS011;32999;52.412;4.890;2022-11-20T04:28:09;12.25;;;6.60;;
47259;SDS011;32999;52.412;4.890;2022-11-20T04:33:11;14.52;;;7.28;;
47259;SDS011;32999;52.412;4.890;2022-11-20T04:38:12;13.93;;;6.88;;
47259;SDS011;32999;52.412;4.890;2022-11-20T04:43:15;12.48;;;7.03;;
47259;SDS011;32999;52.412;4.890;2022-11-20T04:48:17;11.95;;;6.80;;
47259;SDS011;32999;52.412;4.890;2022-11-20T04:53:19;21.75;;;9.38;;
47259;SDS011;32999;52.412;4.890;2022-11-20T04:58:23;14.65;;;6.88;;
47259;SDS011;32999;52.412;4.890;2022-11-20T05:03:25;14.43;;;7.63;;
47259;SDS011;32999;52.412;4.890;2022-11-20T05:08:27;12.35;;;7.00;;
47259;SDS011;32999;52.412;4.890;2022-11-20T05:13:30;15.00;;;7.45;;
47259;SDS011;32999;52.412;4.890;2022-11-20T05:18:32;15.65;;;6.88;;
47259;SDS011;32999;52.412;4.890;2022-11-20T05:23:34;15.63;;;7.38;;
47259;SDS011;32999;52.412;4.890;2022-11-20T05:28:38;14.60;;;7.15;;
47259;SDS011;32999;52.412;4.890;2022-11-20T05:33:40;13.93;;;7.50;;
47259;SDS011;32999;52.412;4.890;2022-11-20T05:38:43;14.10;;;8.35;;
47259;SDS011;32999;52.412;4.890;2022-11-20T05:43:47;14.80;;;8.00;;
47259;SDS011;32999;52.412;4.890;2022-11-20T05:48:51;13.93;;;7.00;;
47259;SDS011;32999;52.412;4.890;2022-11-20T05:53:53;13.60;;;8.05;;
47259;SDS011;32999;52.412;4.890;2022-11-20T05:58:58;15.97;;;7.17;;
47259;SDS011;32999;52.412;4.890;2022-11-20T06:04:00;14.63;;;8.15;;
47259;SDS011;32999;52.412;4.890;2022-11-20T06:09:01;15.38;;;7.90;;
47259;SDS011;32999;52.412;4.890;2022-11-20T06:14:05;13.45;;;7.18;;
47259;SDS011;32999;52.412;4.890;2022-11-20T06:19:07;12.13;;;7.35;;
47259;SDS011;32999;52.412;4.890;2022-11-20T06:24:10;14.48;;;8.35;;
47259;SDS011;32999;52.412;4.890;2022-11-20T06:29:13;14.90;;;7.40;;
47259;SDS011;32999;52.412;4.890;2022-11-20T06:34:15;13.95;;;7.30;;
47259;SDS011;32999;52.412;4.890;2022-11-20T06:39:17;12.70;;;7.00;;
47259;SDS011;32999;52.412;4.890;2022-11-20T06:44:20;16.13;;;8.15;;
47259;SDS011;32999;52.412;4.890;2022-11-20T06:49:22;16.00;;;8.80;;
47259;SDS011;32999;52.412;4.890;2022-11-20T06:54:23;16.33;;;8.73;;
47259;SDS011;32999;52.412;4.890;2022-11-20T06:59:27;15.23;;;8.38;;
47259;SDS011;32999;52.412;4.890;2022-11-20T07:04:28;15.50;;;8.90;;
47259;SDS011;32999;52.412;4.890;2022-11-20T07:09:30;16.27;;;9.13;;
47259;SDS011;32999;52.412;4.890;2022-11-20T07:14:33;16.25;;;9.32;;
47259;SDS011;32999;52.412;4.890;2022-11-20T07:19:34;17.50;;;9.43;;
47259;SDS011;32999;52.412;4.890;2022-11-20T07:24:36;16.65;;;9.93;;
47259;SDS011;32999;52.412;4.890;2022-11-20T07:29:39;14.52;;;8.45;;
47259;SDS011;32999;52.412;4.890;2022-11-20T07:34:41;16.85;;;9.68;;
47259;SDS011;32999;52.412;4.890;2022-11-20T07:39:43;18.90;;;10.32;;
47259;SDS011;32999;52.412;4.890;2022-11-20T07:44:46;20.30;;;10.68;;
47259;SDS011;32999;52.412;4.890;2022-11-20T07:49:48;19.02;;;10.82;;
47259;SDS011;32999;52.412;4.890;2022-11-20T07:54:49;20.30;;;10.45;;
47259;SDS011;32999;52.412;4.890;2022-11-20T07:59:54;18.98;;;10.00;;
47259;SDS011;32999;52.412;4.890;2022-11-20T08:04:56;16.45;;;9.48;;
47259;SDS011;32999;52.412;4.890;2022-11-20T08:09:58;16.88;;;9.00;;
47259;SDS011;32999;52.412;4.890;2022-11-20T08:15:02;16.10;;;9.63;;
47259;SDS011;32999;52.412;4.890;2022-11-20T08:20:04;16.55;;;9.10;;
47259;SDS011;32999;52.412;4.890;2022-11-20T08:25:07;14.73;;;8.65;;
47259;SDS011;32999;52.412;4.890;2022-11-20T08:30:11;16.80;;;8.95;;
47259;SDS011;32999;52.412;4.890;2022-11-20T08:35:13;18.17;;;10.02;;
47259;SDS011;32999;52.412;4.890;2022-11-20T08:40:15;17.92;;;10.05;;
47259;SDS011;32999;52.412;4.890;2022-11-20T08:45:21;17.17;;;10.07;;
47259;SDS011;32999;52.412;4.890;2022-11-20T08:50:31;23.60;;;9.68;;
47259;SDS011;32999;52.412;4.890;2022-11-20T08:55:33;16.23;;;9.32;;
47259;SDS011;32999;52.412;4.890;2022-11-20T09:00:38;14.60;;;8.70;;
47259;SDS011;32999;52.412;4.890;2022-11-20T09:05:40;16.17;;;9.57;;
47259;SDS011;32999;52.412;4.890;2022-11-20T09:10:42;12.90;;;7.65;;
47259;SDS011;32999;52.412;4.890;2022-11-20T09:15:46;16.48;;;8.63;;
47259;SDS011;32999;52.412;4.890;2022-11-20T09:20:55;14.57;;;9.38;;
47259;SDS011;32999;52.412;4.890;2022-11-20T09:26:13;15.10;;;8.60;;
47259;SDS011;32999;52.412;4.890;2022-11-20T09:31:21;16.02;;;8.75;;
47259;SDS011;32999;52.412;4.890;2022-11-20T09:36:39;15.05;;;7.10;;
47259;SDS011;32999;52.412;4.890;2022-11-20T09:43:01;17.42;;;9.13;;
47259;SDS011;32999;52.412;4.890;2022-11-20T09:54:17;16.38;;;9.57;;
47259;SDS011;32999;52.412;4.890;2022-11-20T09:59:36;14.75;;;8.57;;
47259;SDS011;32999;52.412;4.890;2022-11-20T10:05:25;17.38;;;9.20;;
47259;SDS011;32999;52.412;4.890;2022-11-20T10:35:05;18.08;;;10.80;;
47259;SDS011;32999;52.412;4.890;2022-11-20T10:40:37;32.20;;;14.88;;
47259;SDS011;32999;52.412;4.890;2022-11-20T10:45:57;22.35;;;11.82;;
47259;SDS011;32999;52.412;4.890;2022-11-20T11:15:24;19.77;;;11.30;;
47259;SDS011;32999;52.412;4.890;2022-11-20T11:45:15;21.38;;;11.38;;
47259;SDS011;32999;52.412;4.890;2022-11-20T11:56:43;25.65;;;13.43;;
47259;SDS011;32999;52.412;4.890;2022-11-20T12:14:40;35.38;;;18.15;;
47259;SDS011;32999;52.412;4.890;2022-11-20T12:20:11;37.17;;;18.45;;
47259;SDS011;32999;52.412;4.890;2022-11-20T12:25:24;36.95;;;18.67;;
47259;SDS011;32999;52.412;4.890;2022-11-20T12:36:39;46.20;;;21.25;;
47259;SDS011;32999;52.412;4.890;2022-11-20T13:00:25;40.45;;;17.15;;
47259;SDS011;32999;52.412;4.890;2022-11-20T13:05:36;43.83;;;19.23;;
47259;SDS011;32999;52.412;4.890;2022-11-20T13:47:56;43.15;;;19.02;;
47259;SDS011;32999;52.412;4.890;2022-11-20T14:00:15;43.45;;;19.58;;
47259;SDS011;32999;52.412;4.890;2022-11-20T14:11:22;43.20;;;19.10;;
47259;SDS011;32999;52.412;4.890;2022-11-20T14:17:17;45.78;;;21.63;;
47259;SDS011;32999;52.412;4.890;2022-11-20T14:22:22;47.22;;;20.98;;
47259;SDS011;32999;52.412;4.890;2022-11-20T15:27:23;71.10;;;24.30;;
